sensor_id;sensor_type;location;lat;lon;timestamp;temperature;humidity
22917;DHT22;11624;53.250;7.456;2023-12-07T00:01:55;9.55;55.72
22917;DHT22;11624;53.250;7.456;2023-12-07T00:04:25;9.56;55.57
22917;DHT22;11624;53.250;7.456;2023-12-07T00:06:54;9.56;55.65
22917;DHT22;11624;53.250;7.456;2023-12-07T00:09:22;9.52;55.82
22917;DHT22;11624;53.250;7.456;2023-12-07T00:11:51;9.52;55.96
22917;DHT22;11624;53.250;7.456;2023-12-07T00:14:19;9.53;55.97
22917;DHT22;11624;53.250;7.456;2023-12-07T00:16:47;9.59;55.92
22917;DHT22;11624;53.250;7.456;2023-12-07T00:19:16;9.63;55.85
22917;DHT22;11624;53.250;7.456;2023-12-07T00:21:46;9.66;55.73
22917;DHT22;11624;53.250;7.456;2023-12-07T00:24:15;9.69;55.65
22917;DHT22;11624;53.250;7.456;2023-12-07T00:26:43;9.70;55.65
22917;DHT22;11624;53.250;7.456;2023-12-07T00:29:12;9.67;55.57
22917;DHT22;11624;53.250;7.456;2023-12-07T00:31:40;9.63;55.73
22917;DHT22;11624;53.250;7.456;2023-12-07T00:34:09;9.65;55.76
22917;DHT22;11624;53.250;7.456;2023-12-07T00:36:37;9.68;55.78
22917;DHT22;11624;53.250;7.456;2023-12-07T00:39:09;9.69;55.65
22917;DHT22;11624;53.250;7.456;2023-12-07T00:41:38;9.69;55.70
22917;DHT22;11624;53.250;7.456;2023-12-07T00:44:06;9.72;55.69
22917;DHT22;11624;53.250;7.456;2023-12-07T00:46:35;9.75;55.65
22917;DHT22;11624;53.250;7.456;2023-12-07T00:49:03;9.79;55.55
22917;DHT22;11624;53.250;7.456;2023-12-07T00:51:31;9.75;55.65
22917;DHT22;11624;53.250;7.456;2023-12-07T00:54:00;9.79;55.61
22917;DHT22;11624;53.250;7.456;2023-12-07T00:56:30;9.79;55.42
22917;DHT22;11624;53.250;7.456;2023-12-07T00:58:58;9.81;55.52
22917;DHT22;11624;53.250;7.456;2023-12-07T01:01:28;9.86;55.38
22917;DHT22;11624;53.250;7.456;2023-12-07T01:03:56;9.80;55.36
22917;DHT22;11624;53.250;7.456;2023-12-07T01:06:25;9.75;55.55
22917;DHT22;11624;53.250;7.456;2023-12-07T01:08:53;9.76;55.52
22917;DHT22;11624;53.250;7.456;2023-12-07T01:11:22;9.82;55.49
22917;DHT22;11624;53.250;7.456;2023-12-07T01:13:51;9.89;55.30
22917;DHT22;11624;53.250;7.456;2023-12-07T01:16:20;9.85;55.39
22917;DHT22;11624;53.250;7.456;2023-12-07T01:18:48;9.85;55.31
22917;DHT22;11624;53.250;7.456;2023-12-07T01:21:17;9.80;55.40
22917;DHT22;11624;53.250;7.456;2023-12-07T01:23:45;9.76;55.56
22917;DHT22;11624;53.250;7.456;2023-12-07T01:26:18;9.83;55.46
22917;DHT22;11624;53.250;7.456;2023-12-07T01:28:46;9.88;55.41
22917;DHT22;11624;53.250;7.456;2023-12-07T01:31:16;9.82;55.39
22917;DHT22;11624;53.250;7.456;2023-12-07T01:33:45;9.82;55.38
22917;DHT22;11624;53.250;7.456;2023-12-07T01:36:14;9.74;55.55
22917;DHT22;11624;53.250;7.456;2023-12-07T01:38:42;9.69;55.68
22917;DHT22;11624;53.250;7.456;2023-12-07T01:41:11;9.68;55.59
22917;DHT22;11624;53.250;7.456;2023-12-07T01:43:44;9.69;55.23
22917;DHT22;11624;53.250;7.456;2023-12-07T01:46:13;9.71;55.52
22917;DHT22;11624;53.250;7.456;2023-12-07T01:48:44;9.68;55.52
22917;DHT22;11624;53.250;7.456;2023-12-07T01:51:17;9.60;55.68
22917;DHT22;11624;53.250;7.456;2023-12-07T01:53:47;9.63;55.72
22917;DHT22;11624;53.250;7.456;2023-12-07T01:56:16;9.64;55.68
22917;DHT22;11624;53.250;7.456;2023-12-07T01:58:45;9.68;55.60
22917;DHT22;11624;53.250;7.456;2023-12-07T02:01:13;9.67;55.65
22917;DHT22;11624;53.250;7.456;2023-12-07T02:03:44;9.62;55.75
22917;DHT22;11624;53.250;7.456;2023-12-07T02:06:12;9.68;55.71
22917;DHT22;11624;53.250;7.456;2023-12-07T02:08:41;9.64;55.65
22917;DHT22;11624;53.250;7.456;2023-12-07T02:11:10;9.62;55.78
22917;DHT22;11624;53.250;7.456;2023-12-07T02:13:39;9.60;55.77
22917;DHT22;11624;53.250;7.456;2023-12-07T02:16:12;9.54;55.74
22917;DHT22;11624;53.250;7.456;2023-12-07T02:18:48;9.55;55.55
22917;DHT22;11624;53.250;7.456;2023-12-07T02:21:23;9.56;55.70
22917;DHT22;11624;53.250;7.456;2023-12-07T02:23:54;9.62;55.93
22917;DHT22;11624;53.250;7.456;2023-12-07T02:26:33;9.57;55.42
22917;DHT22;11624;53.250;7.456;2023-12-07T02:29:01;9.61;55.83
22917;DHT22;11624;53.250;7.456;2023-12-07T02:31:30;9.62;55.81
22917;DHT22;11624;53.250;7.456;2023-12-07T02:33:59;9.55;55.92
22917;DHT22;11624;53.250;7.456;2023-12-07T02:36:28;9.61;55.96
22917;DHT22;11624;53.250;7.456;2023-12-07T02:38:59;9.64;55.74
22917;DHT22;11624;53.250;7.456;2023-12-07T02:41:33;9.56;55.61
22917;DHT22;11624;53.250;7.456;2023-12-07T02:44:02;9.59;55.88
22917;DHT22;11624;53.250;7.456;2023-12-07T02:46:30;9.64;55.84
22917;DHT22;11624;53.250;7.456;2023-12-07T02:48:59;9.68;55.78
22917;DHT22;11624;53.250;7.456;2023-12-07T02:51:28;9.71;55.71
22917;DHT22;11624;53.250;7.456;2023-12-07T02:53:56;9.62;55.74
22917;DHT22;11624;53.250;7.456;2023-12-07T02:56:24;9.63;55.74
22917;DHT22;11624;53.250;7.456;2023-12-07T02:58:54;9.65;55.64
22917;DHT22;11624;53.250;7.456;2023-12-07T03:01:23;9.69;55.68
22917;DHT22;11624;53.250;7.456;2023-12-07T03:03:51;9.72;55.54
22917;DHT22;11624;53.250;7.456;2023-12-07T03:06:20;9.75;55.49
22917;DHT22;11624;53.250;7.456;2023-12-07T03:08:48;9.75;55.47
22917;DHT22;11624;53.250;7.456;2023-12-07T03:11:17;9.79;55.35
22917;DHT22;11624;53.250;7.456;2023-12-07T03:13:45;9.77;55.35
22917;DHT22;11624;53.250;7.456;2023-12-07T03:16:15;9.76;55.24
22917;DHT22;11624;53.250;7.456;2023-12-07T03:18:44;9.74;55.32
22917;DHT22;11624;53.250;7.456;2023-12-07T03:21:12;9.64;55.45
22917;DHT22;11624;53.250;7.456;2023-12-07T03:23:41;9.63;55.51
22917;DHT22;11624;53.250;7.456;2023-12-07T03:26:09;9.69;55.41
22917;DHT22;11624;53.250;7.456;2023-12-07T03:28:37;9.74;55.29
22917;DHT22;11624;53.250;7.456;2023-12-07T03:31:06;9.75;55.29
22917;DHT22;11624;53.250;7.456;2023-12-07T03:33:36;9.79;55.23
22917;DHT22;11624;53.250;7.456;2023-12-07T03:36:06;9.80;55.29
22917;DHT22;11624;53.250;7.456;2023-12-07T03:38:34;9.86;55.20
22917;DHT22;11624;53.250;7.456;2023-12-07T03:41:03;9.85;55.13
22917;DHT22;11624;53.250;7.456;2023-12-07T03:43:32;9.78;55.32
22917;DHT22;11624;53.250;7.456;2023-12-07T03:46:04;9.77;54.97
22917;DHT22;11624;53.250;7.456;2023-12-07T03:48:32;9.71;55.35
22917;DHT22;11624;53.250;7.456;2023-12-07T03:51:03;9.72;55.31
22917;DHT22;11624;53.250;7.456;2023-12-07T03:53:31;9.74;55.43
22917;DHT22;11624;53.250;7.456;2023-12-07T03:56:00;9.72;55.33
22917;DHT22;11624;53.250;7.456;2023-12-07T03:58:29;9.67;55.39
22917;DHT22;11624;53.250;7.456;2023-12-07T04:00:57;9.70;55.40
22917;DHT22;11624;53.250;7.456;2023-12-07T04:03:26;9.71;55.33
22917;DHT22;11624;53.250;7.456;2023-12-07T04:05:54;9.72;55.34
22917;DHT22;11624;53.250;7.456;2023-12-07T04:08:24;9.69;55.39
22917;DHT22;11624;53.250;7.456;2023-12-07T04:10:53;9.74;55.45
22917;DHT22;11624;53.250;7.456;2023-12-07T04:13:21;9.67;55.57
22917;DHT22;11624;53.250;7.456;2023-12-07T04:15:50;9.75;55.39
22917;DHT22;11624;53.250;7.456;2023-12-07T04:18:18;9.75;55.38
22917;DHT22;11624;53.250;7.456;2023-12-07T04:20:47;9.74;55.37
22917;DHT22;11624;53.250;7.456;2023-12-07T04:23:15;9.70;55.38
22917;DHT22;11624;53.250;7.456;2023-12-07T04:25:46;9.67;55.37
22917;DHT22;11624;53.250;7.456;2023-12-07T04:28:14;9.66;55.58
22917;DHT22;11624;53.250;7.456;2023-12-07T04:30:43;9.72;55.42
22917;DHT22;11624;53.250;7.456;2023-12-07T04:33:11;9.78;55.30
22917;DHT22;11624;53.250;7.456;2023-12-07T04:35:40;9.78;55.27
22917;DHT22;11624;53.250;7.456;2023-12-07T04:38:09;9.80;55.17
22917;DHT22;11624;53.250;7.456;2023-12-07T04:40:37;9.83;55.19
22917;DHT22;11624;53.250;7.456;2023-12-07T04:43:07;9.86;54.94
22917;DHT22;11624;53.250;7.456;2023-12-07T04:45:36;9.88;55.10
22917;DHT22;11624;53.250;7.456;2023-12-07T04:48:05;9.86;55.10
22917;DHT22;11624;53.250;7.456;2023-12-07T04:50:34;9.85;55.01
22917;DHT22;11624;53.250;7.456;2023-12-07T04:53:02;9.82;55.16
22917;DHT22;11624;53.250;7.456;2023-12-07T04:55:31;9.80;55.20
22917;DHT22;11624;53.250;7.456;2023-12-07T04:57:59;9.77;55.13
22917;DHT22;11624;53.250;7.456;2023-12-07T05:00:29;9.77;55.09
22917;DHT22;11624;53.250;7.456;2023-12-07T05:02:58;9.79;55.11
22917;DHT22;11624;53.250;7.456;2023-12-07T05:05:26;9.76;55.14
22917;DHT22;11624;53.250;7.456;2023-12-07T05:07:55;9.71;55.20
22917;DHT22;11624;53.250;7.456;2023-12-07T05:10:23;9.64;55.34
22917;DHT22;11624;53.250;7.456;2023-12-07T05:12:52;9.68;55.36
22917;DHT22;11624;53.250;7.456;2023-12-07T05:15:20;9.76;55.22
22917;DHT22;11624;53.250;7.456;2023-12-07T05:17:50;9.75;55.16
22917;DHT22;11624;53.250;7.456;2023-12-07T05:20:19;9.76;55.26
22917;DHT22;11624;53.250;7.456;2023-12-07T05:22:49;9.80;55.19
22917;DHT22;11624;53.250;7.456;2023-12-07T05:25:18;9.80;55.18
22917;DHT22;11624;53.250;7.456;2023-12-07T05:27:47;9.83;55.12
22917;DHT22;11624;53.250;7.456;2023-12-07T05:30:16;9.80;55.15
22917;DHT22;11624;53.250;7.456;2023-12-07T05:32:44;9.76;55.32
22917;DHT22;11624;53.250;7.456;2023-12-07T05:35:14;9.78;55.33
22917;DHT22;11624;53.250;7.456;2023-12-07T05:37:42;9.83;55.34
22917;DHT22;11624;53.250;7.456;2023-12-07T05:40:11;9.90;55.17
22917;DHT22;11624;53.250;7.456;2023-12-07T05:42:40;9.95;55.04
22917;DHT22;11624;53.250;7.456;2023-12-07T05:45:09;9.96;55.00
22917;DHT22;11624;53.250;7.456;2023-12-07T05:47:38;9.96;55.01
22917;DHT22;11624;53.250;7.456;2023-12-07T05:50:07;9.96;55.00
22917;DHT22;11624;53.250;7.456;2023-12-07T05:52:38;9.96;54.99
22917;DHT22;11624;53.250;7.456;2023-12-07T05:55:07;9.95;54.95
22917;DHT22;11624;53.250;7.456;2023-12-07T05:57:35;9.88;54.97
22917;DHT22;11624;53.250;7.456;2023-12-07T06:00:05;9.77;55.33
22917;DHT22;11624;53.250;7.456;2023-12-07T06:02:39;9.71;55.47
22917;DHT22;11624;53.250;7.456;2023-12-07T06:05:08;9.66;55.56
22917;DHT22;11624;53.250;7.456;2023-12-07T06:07:39;9.67;55.42
22917;DHT22;11624;53.250;7.456;2023-12-07T06:10:09;9.69;55.53
22917;DHT22;11624;53.250;7.456;2023-12-07T06:12:38;9.74;55.47
22917;DHT22;11624;53.250;7.456;2023-12-07T06:15:07;9.69;55.55
22917;DHT22;11624;53.250;7.456;2023-12-07T06:17:36;9.74;55.46
22917;DHT22;11624;53.250;7.456;2023-12-07T06:20:06;9.75;55.57
22917;DHT22;11624;53.250;7.456;2023-12-07T06:22:34;9.80;55.45
22917;DHT22;11624;53.250;7.456;2023-12-07T06:25:05;9.86;55.07
22917;DHT22;11624;53.250;7.456;2023-12-07T06:27:36;9.88;55.17
22917;DHT22;11624;53.250;7.456;2023-12-07T06:30:05;9.83;55.25
22917;DHT22;11624;53.250;7.456;2023-12-07T06:32:34;9.85;55.15
22917;DHT22;11624;53.250;7.456;2023-12-07T06:35:03;9.81;55.20
22917;DHT22;11624;53.250;7.456;2023-12-07T06:37:31;9.86;55.11
22917;DHT22;11624;53.250;7.456;2023-12-07T06:40:00;9.84;55.12
22917;DHT22;11624;53.250;7.456;2023-12-07T06:42:30;9.81;55.16
22917;DHT22;11624;53.250;7.456;2023-12-07T06:44:58;9.85;55.25
22917;DHT22;11624;53.250;7.456;2023-12-07T06:47:27;9.85;55.16
22917;DHT22;11624;53.250;7.456;2023-12-07T06:49:55;9.84;55.07
22917;DHT22;11624;53.250;7.456;2023-12-07T06:52:24;9.70;55.42
22917;DHT22;11624;53.250;7.456;2023-12-07T06:54:52;9.74;55.44
22917;DHT22;11624;53.250;7.456;2023-12-07T06:57:21;9.78;55.39
22917;DHT22;11624;53.250;7.456;2023-12-07T06:59:52;9.84;55.16
22917;DHT22;11624;53.250;7.456;2023-12-07T07:02:20;9.81;55.24
22917;DHT22;11624;53.250;7.456;2023-12-07T07:04:49;9.71;55.42
22917;DHT22;11624;53.250;7.456;2023-12-07T07:07:17;9.72;55.47
22917;DHT22;11624;53.250;7.456;2023-12-07T07:09:46;9.75;55.48
22917;DHT22;11624;53.250;7.456;2023-12-07T07:12:15;9.76;55.45
22917;DHT22;11624;53.250;7.456;2023-12-07T07:14:43;9.79;55.29
22917;DHT22;11624;53.250;7.456;2023-12-07T07:17:13;9.81;55.10
22917;DHT22;11624;53.250;7.456;2023-12-07T07:19:43;9.82;54.95
22917;DHT22;11624;53.250;7.456;2023-12-07T07:22:11;9.79;54.81
22917;DHT22;11624;53.250;7.456;2023-12-07T07:24:40;9.77;54.90
22917;DHT22;11624;53.250;7.456;2023-12-07T07:27:08;9.77;54.84
22917;DHT22;11624;53.250;7.456;2023-12-07T07:29:37;9.71;54.83
22917;DHT22;11624;53.250;7.456;2023-12-07T07:32:06;9.62;55.09
22917;DHT22;11624;53.250;7.456;2023-12-07T07:34:36;9.61;55.04
22917;DHT22;11624;53.250;7.456;2023-12-07T07:37:05;9.62;55.12
22917;DHT22;11624;53.250;7.456;2023-12-07T07:39:34;9.60;55.18
22917;DHT22;11624;53.250;7.456;2023-12-07T07:42:03;9.52;55.36
22917;DHT22;11624;53.250;7.456;2023-12-07T07:44:31;9.51;55.42
22917;DHT22;11624;53.250;7.456;2023-12-07T07:47:00;9.47;55.57
22917;DHT22;11624;53.250;7.456;2023-12-07T07:49:28;9.48;55.58
22917;DHT22;11624;53.250;7.456;2023-12-07T07:51:58;9.53;55.42
22917;DHT22;11624;53.250;7.456;2023-12-07T07:54:27;9.51;55.57
22917;DHT22;11624;53.250;7.456;2023-12-07T07:56:55;9.49;55.67
22917;DHT22;11624;53.250;7.456;2023-12-07T07:59:24;9.46;55.78
22917;DHT22;11624;53.250;7.456;2023-12-07T08:01:52;9.48;55.87
22917;DHT22;11624;53.250;7.456;2023-12-07T08:04:21;9.54;55.74
22917;DHT22;11624;53.250;7.456;2023-12-07T08:06:49;9.57;55.73
22917;DHT22;11624;53.250;7.456;2023-12-07T08:09:19;9.57;55.59
22917;DHT22;11624;53.250;7.456;2023-12-07T08:11:48;9.53;55.80
22917;DHT22;11624;53.250;7.456;2023-12-07T08:14:16;9.56;55.82
22917;DHT22;11624;53.250;7.456;2023-12-07T08:16:44;9.59;55.80
22917;DHT22;11624;53.250;7.456;2023-12-07T08:19:13;9.52;55.90
22917;DHT22;11624;53.250;7.456;2023-12-07T08:21:42;9.51;56.00
22917;DHT22;11624;53.250;7.456;2023-12-07T08:24:10;9.57;55.94
22917;DHT22;11624;53.250;7.456;2023-12-07T08:26:41;9.63;55.83
22917;DHT22;11624;53.250;7.456;2023-12-07T08:29:09;9.67;55.80
22917;DHT22;11624;53.250;7.456;2023-12-07T08:31:40;9.70;55.68
22917;DHT22;11624;53.250;7.456;2023-12-07T08:34:08;9.69;55.84
22917;DHT22;11624;53.250;7.456;2023-12-07T08:36:37;9.69;55.89
22917;DHT22;11624;53.250;7.456;2023-12-07T08:39:05;9.74;55.84
22917;DHT22;11624;53.250;7.456;2023-12-07T08:41:36;9.71;55.92
22917;DHT22;11624;53.250;7.456;2023-12-07T08:44:06;9.70;55.84
22917;DHT22;11624;53.250;7.456;2023-12-07T08:46:35;9.71;55.84
22917;DHT22;11624;53.250;7.456;2023-12-07T08:49:03;9.75;56.00
22917;DHT22;11624;53.250;7.456;2023-12-07T08:51:33;9.79;55.94
22917;DHT22;11624;53.250;7.456;2023-12-07T08:54:01;9.83;55.88
22917;DHT22;11624;53.250;7.456;2023-12-07T08:56:30;9.86;55.86
22917;DHT22;11624;53.250;7.456;2023-12-07T08:58:58;9.89;55.88
22917;DHT22;11624;53.250;7.456;2023-12-07T09:01:28;9.95;55.81
22917;DHT22;11624;53.250;7.456;2023-12-07T09:03:59;10.01;55.79
22917;DHT22;11624;53.250;7.456;2023-12-07T09:06:28;10.06;55.77
22917;DHT22;11624;53.250;7.456;2023-12-07T09:08:57;10.06;55.80
22917;DHT22;11624;53.250;7.456;2023-12-07T09:11:25;10.12;55.81
22917;DHT22;11624;53.250;7.456;2023-12-07T09:13:54;10.19;55.74
22917;DHT22;11624;53.250;7.456;2023-12-07T09:16:22;10.27;55.68
22917;DHT22;11624;53.250;7.456;2023-12-07T09:18:53;10.37;55.30
22917;DHT22;11624;53.250;7.456;2023-12-07T09:21:21;10.38;55.39
22917;DHT22;11624;53.250;7.456;2023-12-07T09:23:50;10.31;55.34
22917;DHT22;11624;53.250;7.456;2023-12-07T09:26:19;10.27;55.39
22917;DHT22;11624;53.250;7.456;2023-12-07T09:28:47;10.29;55.22
22917;DHT22;11624;53.250;7.456;2023-12-07T09:31:16;10.25;55.13
22917;DHT22;11624;53.250;7.456;2023-12-07T09:33:44;10.21;55.24
22917;DHT22;11624;53.250;7.456;2023-12-07T09:36:18;10.19;55.10
22917;DHT22;11624;53.250;7.456;2023-12-07T09:38:48;10.23;55.35
22917;DHT22;11624;53.250;7.456;2023-12-07T09:41:17;10.25;55.36
22917;DHT22;11624;53.250;7.456;2023-12-07T09:43:45;10.19;55.40
22917;DHT22;11624;53.250;7.456;2023-12-07T09:46:14;10.29;55.23
22917;DHT22;11624;53.250;7.456;2023-12-07T09:48:43;10.37;55.17
22917;DHT22;11624;53.250;7.456;2023-12-07T09:51:13;10.42;55.04
22917;DHT22;11624;53.250;7.456;2023-12-07T09:53:45;10.41;54.94
22917;DHT22;11624;53.250;7.456;2023-12-07T09:56:16;10.41;55.10
22917;DHT22;11624;53.250;7.456;2023-12-07T09:58:45;10.39;55.13
22917;DHT22;11624;53.250;7.456;2023-12-07T10:01:14;10.40;55.07
22917;DHT22;11624;53.250;7.456;2023-12-07T10:03:42;10.49;55.08
22917;DHT22;11624;53.250;7.456;2023-12-07T10:06:14;10.53;54.95
22917;DHT22;11624;53.250;7.456;2023-12-07T10:08:45;10.56;54.78
22917;DHT22;11624;53.250;7.456;2023-12-07T10:11:17;10.62;54.42
22917;DHT22;11624;53.250;7.456;2023-12-07T10:13:46;10.65;54.84
22917;DHT22;11624;53.250;7.456;2023-12-07T10:16:15;10.71;54.71
22917;DHT22;11624;53.250;7.456;2023-12-07T10:18:46;10.67;54.61
22917;DHT22;11624;53.250;7.456;2023-12-07T10:21:31;10.59;54.41
22917;DHT22;11624;53.250;7.456;2023-12-07T10:24:01;10.66;54.73
22917;DHT22;11624;53.250;7.456;2023-12-07T10:26:30;10.75;54.92
22917;DHT22;11624;53.250;7.456;2023-12-07T10:28:59;10.83;54.86
22917;DHT22;11624;53.250;7.456;2023-12-07T10:31:27;10.97;55.03
22917;DHT22;11624;53.250;7.456;2023-12-07T10:33:58;11.01;54.52
22917;DHT22;11624;53.250;7.456;2023-12-07T10:36:27;11.05;54.68
22917;DHT22;11624;53.250;7.456;2023-12-07T10:38:56;11.16;54.49
22917;DHT22;11624;53.250;7.456;2023-12-07T10:41:26;11.19;54.17
22917;DHT22;11624;53.250;7.456;2023-12-07T10:44:00;11.44;54.46
22917;DHT22;11624;53.250;7.456;2023-12-07T10:46:29;11.59;54.15
22917;DHT22;11624;53.250;7.456;2023-12-07T10:49:05;11.63;53.37
22917;DHT22;11624;53.250;7.456;2023-12-07T10:51:51;11.66;52.98
22917;DHT22;11624;53.250;7.456;2023-12-07T10:54:24;11.59;52.83
22917;DHT22;11624;53.250;7.456;2023-12-07T10:56:57;11.62;52.95
22917;DHT22;11624;53.250;7.456;2023-12-07T10:59:30;11.70;53.24
22917;DHT22;11624;53.250;7.456;2023-12-07T11:02:02;11.83;52.82
22917;DHT22;11624;53.250;7.456;2023-12-07T11:04:35;11.81;52.12
22917;DHT22;11624;53.250;7.456;2023-12-07T11:07:09;11.77;52.23
22917;DHT22;11624;53.250;7.456;2023-12-07T11:09:44;11.89;52.51
22917;DHT22;11624;53.250;7.456;2023-12-07T11:12:22;11.85;51.66
22917;DHT22;11624;53.250;7.456;2023-12-07T11:14:53;11.81;51.80
22917;DHT22;11624;53.250;7.456;2023-12-07T11:17:22;11.86;52.05
22917;DHT22;11624;53.250;7.456;2023-12-07T11:19:51;11.77;51.68
22917;DHT22;11624;53.250;7.456;2023-12-07T11:22:20;11.75;52.17
22917;DHT22;11624;53.250;7.456;2023-12-07T11:24:53;11.82;53.08
22917;DHT22;11624;53.250;7.456;2023-12-07T11:27:24;12.12;53.36
22917;DHT22;11624;53.250;7.456;2023-12-07T11:29:53;12.61;55.07
22917;DHT22;11624;53.250;7.456;2023-12-07T11:32:22;13.20;53.68
22917;DHT22;11624;53.250;7.456;2023-12-07T11:35:01;13.94;50.05
22917;DHT22;11624;53.250;7.456;2023-12-07T11:38:01;14.53;48.17
22917;DHT22;11624;53.250;7.456;2023-12-07T11:40:30;15.13;47.70
22917;DHT22;11624;53.250;7.456;2023-12-07T11:43:02;15.65;44.50
22917;DHT22;11624;53.250;7.456;2023-12-07T11:45:39;16.12;44.42
22917;DHT22;11624;53.250;7.456;2023-12-07T11:48:09;16.58;43.87
22917;DHT22;11624;53.250;7.456;2023-12-07T11:50:58;16.89;42.48
22917;DHT22;11624;53.250;7.456;2023-12-07T11:53:28;17.21;40.52
22917;DHT22;11624;53.250;7.456;2023-12-07T11:55:57;17.13;39.99
22917;DHT22;11624;53.250;7.456;2023-12-07T11:58:28;17.07;38.91
22917;DHT22;11624;53.250;7.456;2023-12-07T12:01:00;17.03;38.92
22917;DHT22;11624;53.250;7.456;2023-12-07T12:03:30;16.86;38.43
22917;DHT22;11624;53.250;7.456;2023-12-07T12:05:59;16.54;39.13
22917;DHT22;11624;53.250;7.456;2023-12-07T12:08:27;16.57;38.49
22917;DHT22;11624;53.250;7.456;2023-12-07T12:10:56;16.11;38.11
22917;DHT22;11624;53.250;7.456;2023-12-07T12:13:31;15.37;38.95
22917;DHT22;11624;53.250;7.456;2023-12-07T12:16:00;14.70;40.54
22917;DHT22;11624;53.250;7.456;2023-12-07T12:18:33;14.29;41.81
22917;DHT22;11624;53.250;7.456;2023-12-07T12:21:03;14.24;44.29
22917;DHT22;11624;53.250;7.456;2023-12-07T12:23:31;14.57;44.67
22917;DHT22;11624;53.250;7.456;2023-12-07T12:26:00;15.03;44.32
22917;DHT22;11624;53.250;7.456;2023-12-07T12:28:31;15.31;42.65
22917;DHT22;11624;53.250;7.456;2023-12-07T12:31:00;15.03;40.97
22917;DHT22;11624;53.250;7.456;2023-12-07T12:33:29;14.53;41.13
22917;DHT22;11624;53.250;7.456;2023-12-07T12:36:04;14.09;41.90
22917;DHT22;11624;53.250;7.456;2023-12-07T12:38:34;14.04;44.35
22917;DHT22;11624;53.250;7.456;2023-12-07T12:41:10;14.47;44.96
22917;DHT22;11624;53.250;7.456;2023-12-07T12:43:40;15.03;43.37
22917;DHT22;11624;53.250;7.456;2023-12-07T12:46:12;15.47;42.45
22917;DHT22;11624;53.250;7.456;2023-12-07T12:48:54;16.02;41.36
22917;DHT22;11624;53.250;7.456;2023-12-07T12:51:25;16.22;40.33
22917;DHT22;11624;53.250;7.456;2023-12-07T12:53:55;16.30;40.11
22917;DHT22;11624;53.250;7.456;2023-12-07T12:56:26;16.39;40.01
22917;DHT22;11624;53.250;7.456;2023-12-07T12:58:56;16.02;39.45
22917;DHT22;11624;53.250;7.456;2023-12-07T13:01:31;15.91;39.97
22917;DHT22;11624;53.250;7.456;2023-12-07T13:04:00;15.90;39.75
22917;DHT22;11624;53.250;7.456;2023-12-07T13:06:29;15.32;40.86
22917;DHT22;11624;53.250;7.456;2023-12-07T13:08:58;15.17;41.43
22917;DHT22;11624;53.250;7.456;2023-12-07T13:11:26;14.82;41.65
22917;DHT22;11624;53.250;7.456;2023-12-07T13:13:56;14.71;41.69
22917;DHT22;11624;53.250;7.456;2023-12-07T13:16:26;14.23;41.60
22917;DHT22;11624;53.250;7.456;2023-12-07T13:18:54;13.68;42.36
22917;DHT22;11624;53.250;7.456;2023-12-07T13:21:23;13.20;43.13
22917;DHT22;11624;53.250;7.456;2023-12-07T13:23:52;12.60;44.43
22917;DHT22;11624;53.250;7.456;2023-12-07T13:26:21;12.05;45.68
22917;DHT22;11624;53.250;7.456;2023-12-07T13:28:50;11.66;46.74
22917;DHT22;11624;53.250;7.456;2023-12-07T13:31:21;11.20;47.89
22917;DHT22;11624;53.250;7.456;2023-12-07T13:33:50;11.08;48.42
22917;DHT22;11624;53.250;7.456;2023-12-07T13:36:23;10.99;48.76
22917;DHT22;11624;53.250;7.456;2023-12-07T13:38:54;10.90;48.92
22917;DHT22;11624;53.250;7.456;2023-12-07T13:41:23;10.57;49.62
22917;DHT22;11624;53.250;7.456;2023-12-07T13:43:51;10.28;50.58
22917;DHT22;11624;53.250;7.456;2023-12-07T13:46:21;10.14;50.70
22917;DHT22;11624;53.250;7.456;2023-12-07T13:48:50;10.12;51.00
22917;DHT22;11624;53.250;7.456;2023-12-07T13:51:19;10.14;50.98
22917;DHT22;11624;53.250;7.456;2023-12-07T13:53:48;9.97;51.60
22917;DHT22;11624;53.250;7.456;2023-12-07T13:56:26;9.88;52.01
22917;DHT22;11624;53.250;7.456;2023-12-07T13:58:54;9.82;52.10
22917;DHT22;11624;53.250;7.456;2023-12-07T14:01:24;9.74;52.23
22917;DHT22;11624;53.250;7.456;2023-12-07T14:03:54;9.64;52.74
22917;DHT22;11624;53.250;7.456;2023-12-07T14:06:23;9.66;52.66
22917;DHT22;11624;53.250;7.456;2023-12-07T14:08:55;9.64;52.76
22917;DHT22;11624;53.250;7.456;2023-12-07T14:11:24;9.46;53.11
22917;DHT22;11624;53.250;7.456;2023-12-07T14:13:52;9.39;53.14
22917;DHT22;11624;53.250;7.456;2023-12-07T14:16:23;9.39;53.09
22917;DHT22;11624;53.250;7.456;2023-12-07T14:19:11;9.32;53.17
22917;DHT22;11624;53.250;7.456;2023-12-07T14:21:42;9.27;53.39
22917;DHT22;11624;53.250;7.456;2023-12-07T14:24:22;9.21;53.67
22917;DHT22;11624;53.250;7.456;2023-12-07T14:26:51;9.11;53.97
22917;DHT22;11624;53.250;7.456;2023-12-07T14:29:21;9.09;54.09
22917;DHT22;11624;53.250;7.456;2023-12-07T14:31:55;9.01;54.15
22917;DHT22;11624;53.250;7.456;2023-12-07T14:34:24;8.92;54.45
22917;DHT22;11624;53.250;7.456;2023-12-07T14:37:02;8.93;54.44
22917;DHT22;11624;53.250;7.456;2023-12-07T14:39:34;8.87;54.71
22917;DHT22;11624;53.250;7.456;2023-12-07T14:42:03;8.68;55.20
22917;DHT22;11624;53.250;7.456;2023-12-07T14:44:33;8.53;55.67
22917;DHT22;11624;53.250;7.456;2023-12-07T14:47:03;8.43;55.62
22917;DHT22;11624;53.250;7.456;2023-12-07T14:49:32;8.36;55.81
22917;DHT22;11624;53.250;7.456;2023-12-07T14:52:01;8.39;55.71
22917;DHT22;11624;53.250;7.456;2023-12-07T14:54:29;8.49;55.48
22917;DHT22;11624;53.250;7.456;2023-12-07T14:56:58;8.59;55.35
22917;DHT22;11624;53.250;7.456;2023-12-07T14:59:28;8.47;55.82
22917;DHT22;11624;53.250;7.456;2023-12-07T15:01:57;8.42;55.82
22917;DHT22;11624;53.250;7.456;2023-12-07T15:04:29;8.29;56.03
22917;DHT22;11624;53.250;7.456;2023-12-07T15:07:01;8.29;56.29
22917;DHT22;11624;53.250;7.456;2023-12-07T15:09:32;8.32;56.20
22917;DHT22;11624;53.250;7.456;2023-12-07T15:12:03;8.19;56.65
22917;DHT22;11624;53.250;7.456;2023-12-07T15:14:31;8.21;56.93
22917;DHT22;11624;53.250;7.456;2023-12-07T15:17:05;8.32;56.76
22917;DHT22;11624;53.250;7.456;2023-12-07T15:19:37;8.46;56.45
22917;DHT22;11624;53.250;7.456;2023-12-07T15:22:08;8.49;56.58
22917;DHT22;11624;53.250;7.456;2023-12-07T15:24:37;8.58;56.38
22917;DHT22;11624;53.250;7.456;2023-12-07T15:27:07;8.64;56.26
22917;DHT22;11624;53.250;7.456;2023-12-07T15:29:36;8.53;56.47
22917;DHT22;11624;53.250;7.456;2023-12-07T15:32:08;8.52;56.34
22917;DHT22;11624;53.250;7.456;2023-12-07T15:34:38;8.42;56.40
22917;DHT22;11624;53.250;7.456;2023-12-07T15:37:09;8.31;56.72
22917;DHT22;11624;53.250;7.456;2023-12-07T15:39:42;8.31;56.86
22917;DHT22;11624;53.250;7.456;2023-12-07T15:42:11;8.39;56.77
22917;DHT22;11624;53.250;7.456;2023-12-07T15:44:40;8.45;56.59
22917;DHT22;11624;53.250;7.456;2023-12-07T15:47:09;8.29;56.93
22917;DHT22;11624;53.250;7.456;2023-12-07T15:49:40;8.22;56.97
22917;DHT22;11624;53.250;7.456;2023-12-07T15:52:09;8.28;56.87
22917;DHT22;11624;53.250;7.456;2023-12-07T15:54:38;8.34;56.79
22917;DHT22;11624;53.250;7.456;2023-12-07T15:57:08;8.35;56.80
22917;DHT22;11624;53.250;7.456;2023-12-07T15:59:38;8.39;56.59